sensor_id;sensor_type;location;lat;lon;timestamp;P1;durP1;ratioP1;P2;durP2;ratioP2
40058;SDS011;25763;49.972;8.568;2023-08-12T00:01:17;119.40;;;113.40;;
40058;SDS011;25763;49.972;8.568;2023-08-12T00:03:42;103.35;;;98.22;;
40058;SDS011;25763;49.972;8.568;2023-08-12T00:06:08;91.18;;;86.68;;
40058;SDS011;25763;49.972;8.568;2023-08-12T00:08:33;93.57;;;88.93;;
40058;SDS011;25763;49.972;8.568;2023-08-12T00:10:58;98.70;;;93.82;;
40058;SDS011;25763;49.972;8.568;2023-08-12T00:13:24;80.88;;;76.82;;
40058;SDS011;25763;49.972;8.568;2023-08-12T00:15:49;66.05;;;62.70;;
40058;SDS011;25763;49.972;8.568;2023-08-12T00:18:14;60.03;;;56.97;;
40058;SDS011;25763;49.972;8.568;2023-08-12T00:20:40;50.00;;;47.42;;
40058;SDS011;25763;49.972;8.568;2023-08-12T00:23:07;38.40;;;36.30;;
40058;SDS011;25763;49.972;8.568;2023-08-12T00:25:33;43.92;;;41.63;;
40058;SDS011;25763;49.972;8.568;2023-08-12T00:27:58;37.17;;;35.22;;
40058;SDS011;25763;49.972;8.568;2023-08-12T00:30:24;42.45;;;40.25;;
40058;SDS011;25763;49.972;8.568;2023-08-12T00:32:49;40.72;;;38.63;;
40058;SDS011;25763;49.972;8.568;2023-08-12T00:35:14;45.70;;;43.33;;
40058;SDS011;25763;49.972;8.568;2023-08-12T00:37:40;72.75;;;69.15;;
40058;SDS011;25763;49.972;8.568;2023-08-12T00:40:05;80.28;;;76.00;;
40058;SDS011;25763;49.972;8.568;2023-08-12T00:42:31;92.97;;;88.30;;
40058;SDS011;25763;49.972;8.568;2023-08-12T00:44:57;73.32;;;69.63;;
40058;SDS011;25763;49.972;8.568;2023-08-12T00:47:23;86.35;;;82.03;;
40058;SDS011;25763;49.972;8.568;2023-08-12T00:49:48;71.82;;;67.90;;
40058;SDS011;25763;49.972;8.568;2023-08-12T00:52:14;71.85;;;68.15;;
40058;SDS011;25763;49.972;8.568;2023-08-12T00:54:41;82.85;;;78.72;;
40058;SDS011;25763;49.972;8.568;2023-08-12T00:57:06;103.32;;;98.10;;
40058;SDS011;25763;49.972;8.568;2023-08-12T00:59:33;93.47;;;88.80;;
40058;SDS011;25763;49.972;8.568;2023-08-12T01:02:00;90.75;;;86.20;;
40058;SDS011;25763;49.972;8.568;2023-08-12T01:04:26;83.60;;;79.45;;
40058;SDS011;25763;49.972;8.568;2023-08-12T01:06:52;79.05;;;75.10;;
40058;SDS011;25763;49.972;8.568;2023-08-12T01:09:17;80.15;;;76.15;;
40058;SDS011;25763;49.972;8.568;2023-08-12T01:14:35;76.07;;;72.25;;
40058;SDS011;25763;49.972;8.568;2023-08-12T01:17:10;60.75;;;57.70;;
40058;SDS011;25763;49.972;8.568;2023-08-12T01:19:39;69.05;;;65.55;;
40058;SDS011;25763;49.972;8.568;2023-08-12T01:22:09;54.80;;;51.97;;
40058;SDS011;25763;49.972;8.568;2023-08-12T01:24:37;57.97;;;55.03;;
40058;SDS011;25763;49.972;8.568;2023-08-12T01:27:04;52.10;;;49.42;;
40058;SDS011;25763;49.972;8.568;2023-08-12T01:29:31;55.17;;;52.38;;
40058;SDS011;25763;49.972;8.568;2023-08-12T01:32:20;58.30;;;55.30;;
40058;SDS011;25763;49.972;8.568;2023-08-12T01:37:42;45.25;;;42.90;;
40058;SDS011;25763;49.972;8.568;2023-08-12T01:40:08;51.10;;;48.10;;
40058;SDS011;25763;49.972;8.568;2023-08-12T01:42:35;48.22;;;45.70;;
40058;SDS011;25763;49.972;8.568;2023-08-12T01:45:01;52.20;;;49.50;;
40058;SDS011;25763;49.972;8.568;2023-08-12T01:47:28;59.47;;;56.17;;
40058;SDS011;25763;49.972;8.568;2023-08-12T01:49:53;53.22;;;50.42;;
40058;SDS011;25763;49.972;8.568;2023-08-12T01:52:19;62.67;;;59.42;;
40058;SDS011;25763;49.972;8.568;2023-08-12T01:54:44;63.90;;;60.05;;
40058;SDS011;25763;49.972;8.568;2023-08-12T01:57:10;80.30;;;76.13;;
40058;SDS011;25763;49.972;8.568;2023-08-12T01:59:36;59.60;;;56.42;;
40058;SDS011;25763;49.972;8.568;2023-08-12T02:02:01;58.88;;;55.80;;
40058;SDS011;25763;49.972;8.568;2023-08-12T02:04:27;114.20;;;108.47;;
40058;SDS011;25763;49.972;8.568;2023-08-12T02:06:53;84.72;;;80.40;;
40058;SDS011;25763;49.972;8.568;2023-08-12T02:09:19;80.30;;;76.22;;
40058;SDS011;25763;49.972;8.568;2023-08-12T02:11:45;103.00;;;96.93;;
40058;SDS011;25763;49.972;8.568;2023-08-12T02:14:10;95.03;;;90.20;;
40058;SDS011;25763;49.972;8.568;2023-08-12T02:16:36;97.25;;;92.35;;
40058;SDS011;25763;49.972;8.568;2023-08-12T02:19:01;78.43;;;74.45;;
40058;SDS011;25763;49.972;8.568;2023-08-12T02:21:26;95.38;;;90.57;;
40058;SDS011;25763;49.972;8.568;2023-08-12T02:23:52;97.93;;;93.03;;
40058;SDS011;25763;49.972;8.568;2023-08-12T02:26:17;85.18;;;80.97;;
40058;SDS011;25763;49.972;8.568;2023-08-12T02:28:42;98.75;;;93.75;;
40058;SDS011;25763;49.972;8.568;2023-08-12T02:31:08;115.82;;;110.00;;
40058;SDS011;25763;49.972;8.568;2023-08-12T02:33:33;106.05;;;100.75;;
40058;SDS011;25763;49.972;8.568;2023-08-12T02:35:59;92.57;;;87.97;;
40058;SDS011;25763;49.972;8.568;2023-08-12T02:38:24;111.18;;;104.72;;
40058;SDS011;25763;49.972;8.568;2023-08-12T02:40:50;79.10;;;74.97;;
40058;SDS011;25763;49.972;8.568;2023-08-12T02:43:16;79.97;;;75.95;;
40058;SDS011;25763;49.972;8.568;2023-08-12T02:45:42;121.63;;;115.50;;
40058;SDS011;25763;49.972;8.568;2023-08-12T02:48:09;123.72;;;117.50;;
40058;SDS011;25763;49.972;8.568;2023-08-12T02:50:35;68.03;;;64.55;;
40058;SDS011;25763;49.972;8.568;2023-08-12T02:53:00;71.75;;;68.07;;
40058;SDS011;25763;49.972;8.568;2023-08-12T02:55:25;83.72;;;79.50;;
40058;SDS011;25763;49.972;8.568;2023-08-12T02:57:51;95.38;;;90.45;;
40058;SDS011;25763;49.972;8.568;2023-08-12T03:00:16;95.45;;;90.63;;
40058;SDS011;25763;49.972;8.568;2023-08-12T03:02:42;106.68;;;101.22;;
40058;SDS011;25763;49.972;8.568;2023-08-12T03:05:08;116.88;;;111.05;;
40058;SDS011;25763;49.972;8.568;2023-08-12T03:07:33;124.57;;;118.30;;
40058;SDS011;25763;49.972;8.568;2023-08-12T03:09:59;132.40;;;125.80;;
40058;SDS011;25763;49.972;8.568;2023-08-12T03:12:24;135.00;;;128.32;;
40058;SDS011;25763;49.972;8.568;2023-08-12T03:14:49;126.90;;;120.63;;
40058;SDS011;25763;49.972;8.568;2023-08-12T03:17:15;122.80;;;116.45;;
40058;SDS011;25763;49.972;8.568;2023-08-12T03:19:40;152.88;;;145.00;;
40058;SDS011;25763;49.972;8.568;2023-08-12T03:22:06;152.05;;;144.52;;
40058;SDS011;25763;49.972;8.568;2023-08-12T03:24:31;140.20;;;133.20;;
40058;SDS011;25763;49.972;8.568;2023-08-12T03:26:57;137.02;;;130.23;;
40058;SDS011;25763;49.972;8.568;2023-08-12T03:29:22;162.82;;;154.80;;
40058;SDS011;25763;49.972;8.568;2023-08-12T03:31:47;168.10;;;159.77;;
40058;SDS011;25763;49.972;8.568;2023-08-12T03:34:13;180.85;;;171.98;;
40058;SDS011;25763;49.972;8.568;2023-08-12T03:36:38;191.23;;;181.75;;
40058;SDS011;25763;49.972;8.568;2023-08-12T03:39:03;204.60;;;193.85;;
40058;SDS011;25763;49.972;8.568;2023-08-12T03:41:29;197.65;;;187.90;;
40058;SDS011;25763;49.972;8.568;2023-08-12T03:43:55;157.80;;;149.98;;
40058;SDS011;25763;49.972;8.568;2023-08-12T03:46:21;175.48;;;166.82;;
40058;SDS011;25763;49.972;8.568;2023-08-12T03:48:46;172.85;;;164.30;;
40058;SDS011;25763;49.972;8.568;2023-08-12T03:51:12;204.02;;;193.90;;
40058;SDS011;25763;49.972;8.568;2023-08-12T03:53:37;175.15;;;166.45;;
40058;SDS011;25763;49.972;8.568;2023-08-12T03:56:03;156.13;;;148.35;;
40058;SDS011;25763;49.972;8.568;2023-08-12T03:58:29;117.70;;;111.55;;
40058;SDS011;25763;49.972;8.568;2023-08-12T04:00:54;112.78;;;107.20;;
40058;SDS011;25763;49.972;8.568;2023-08-12T04:03:19;148.45;;;141.02;;
40058;SDS011;25763;49.972;8.568;2023-08-12T04:05:48;136.65;;;129.85;;
40058;SDS011;25763;49.972;8.568;2023-08-12T04:08:16;103.80;;;98.50;;
40058;SDS011;25763;49.972;8.568;2023-08-12T04:10:44;122.93;;;116.72;;
40058;SDS011;25763;49.972;8.568;2023-08-12T04:13:10;149.77;;;141.95;;
40058;SDS011;25763;49.972;8.568;2023-08-12T04:15:35;210.55;;;200.23;;
40058;SDS011;25763;49.972;8.568;2023-08-12T04:18:00;181.07;;;172.00;;
40058;SDS011;25763;49.972;8.568;2023-08-12T04:20:26;147.25;;;139.90;;
40058;SDS011;25763;49.972;8.568;2023-08-12T04:22:51;112.50;;;106.90;;
40058;SDS011;25763;49.972;8.568;2023-08-12T04:25:16;118.65;;;112.75;;
40058;SDS011;25763;49.972;8.568;2023-08-12T04:27:42;117.35;;;111.50;;
40058;SDS011;25763;49.972;8.568;2023-08-12T04:30:08;109.07;;;103.55;;
40058;SDS011;25763;49.972;8.568;2023-08-12T04:32:33;107.78;;;102.43;;
40058;SDS011;25763;49.972;8.568;2023-08-12T04:34:59;131.90;;;125.32;;
40058;SDS011;25763;49.972;8.568;2023-08-12T04:37:24;118.70;;;112.70;;
40058;SDS011;25763;49.972;8.568;2023-08-12T04:39:51;126.28;;;120.00;;
40058;SDS011;25763;49.972;8.568;2023-08-12T04:42:16;134.10;;;127.47;;
40058;SDS011;25763;49.972;8.568;2023-08-12T04:44:41;116.32;;;110.55;;
40058;SDS011;25763;49.972;8.568;2023-08-12T04:47:07;109.85;;;104.40;;
40058;SDS011;25763;49.972;8.568;2023-08-12T04:49:32;103.68;;;98.47;;
40058;SDS011;25763;49.972;8.568;2023-08-12T04:51:57;105.85;;;100.57;;
40058;SDS011;25763;49.972;8.568;2023-08-12T04:54:23;102.75;;;97.45;;
40058;SDS011;25763;49.972;8.568;2023-08-12T04:56:49;86.28;;;81.97;;
40058;SDS011;25763;49.972;8.568;2023-08-12T04:59:14;63.10;;;59.92;;
40058;SDS011;25763;49.972;8.568;2023-08-12T05:01:40;55.25;;;52.13;;
40058;SDS011;25763;49.972;8.568;2023-08-12T05:04:05;51.08;;;48.35;;
40058;SDS011;25763;49.972;8.568;2023-08-12T05:06:30;45.45;;;43.10;;
40058;SDS011;25763;49.972;8.568;2023-08-12T05:08:56;55.15;;;52.28;;
40058;SDS011;25763;49.972;8.568;2023-08-12T05:11:21;43.05;;;40.63;;
40058;SDS011;25763;49.972;8.568;2023-08-12T05:13:47;62.78;;;59.58;;
40058;SDS011;25763;49.972;8.568;2023-08-12T05:16:12;68.45;;;64.88;;
40058;SDS011;25763;49.972;8.568;2023-08-12T05:18:37;59.08;;;56.08;;
40058;SDS011;25763;49.972;8.568;2023-08-12T05:21:03;61.08;;;57.92;;
40058;SDS011;25763;49.972;8.568;2023-08-12T05:23:28;75.07;;;71.22;;
40058;SDS011;25763;49.972;8.568;2023-08-12T05:25:53;69.10;;;65.45;;
40058;SDS011;25763;49.972;8.568;2023-08-12T05:28:19;60.13;;;57.08;;
40058;SDS011;25763;49.972;8.568;2023-08-12T05:30:44;61.65;;;58.53;;
40058;SDS011;25763;49.972;8.568;2023-08-12T05:33:10;82.22;;;78.07;;
40058;SDS011;25763;49.972;8.568;2023-08-12T05:35:36;93.72;;;89.05;;
40058;SDS011;25763;49.972;8.568;2023-08-12T05:38:01;76.43;;;72.53;;
40058;SDS011;25763;49.972;8.568;2023-08-12T05:40:27;77.38;;;73.53;;
40058;SDS011;25763;49.972;8.568;2023-08-12T05:42:53;68.57;;;65.13;;
40058;SDS011;25763;49.972;8.568;2023-08-12T05:45:18;54.63;;;51.42;;
40058;SDS011;25763;49.972;8.568;2023-08-12T05:47:44;46.78;;;44.30;;
40058;SDS011;25763;49.972;8.568;2023-08-12T05:50:09;54.33;;;51.50;;
40058;SDS011;25763;49.972;8.568;2023-08-12T05:52:34;72.20;;;68.50;;
40058;SDS011;25763;49.972;8.568;2023-08-12T05:55:00;79.10;;;75.10;;
40058;SDS011;25763;49.972;8.568;2023-08-12T05:57:25;81.68;;;77.43;;
40058;SDS011;25763;49.972;8.568;2023-08-12T05:59:51;89.93;;;85.45;;
40058;SDS011;25763;49.972;8.568;2023-08-12T06:02:16;84.90;;;80.57;;
40058;SDS011;25763;49.972;8.568;2023-08-12T06:04:42;95.53;;;90.78;;
40058;SDS011;25763;49.972;8.568;2023-08-12T06:07:07;82.97;;;78.80;;
40058;SDS011;25763;49.972;8.568;2023-08-12T06:09:33;68.93;;;65.45;;
40058;SDS011;25763;49.972;8.568;2023-08-12T06:11:58;57.50;;;54.53;;
40058;SDS011;25763;49.972;8.568;2023-08-12T06:14:23;72.47;;;68.82;;
40058;SDS011;25763;49.972;8.568;2023-08-12T06:16:48;66.18;;;62.88;;
40058;SDS011;25763;49.972;8.568;2023-08-12T06:19:14;80.18;;;76.15;;
40058;SDS011;25763;49.972;8.568;2023-08-12T06:21:39;87.25;;;82.88;;
40058;SDS011;25763;49.972;8.568;2023-08-12T06:24:05;70.45;;;66.72;;
40058;SDS011;25763;49.972;8.568;2023-08-12T06:26:30;83.10;;;78.97;;
40058;SDS011;25763;49.972;8.568;2023-08-12T06:28:55;126.97;;;120.60;;
40058;SDS011;25763;49.972;8.568;2023-08-12T06:31:21;89.45;;;84.90;;
40058;SDS011;25763;49.972;8.568;2023-08-12T06:33:46;118.53;;;112.53;;
40058;SDS011;25763;49.972;8.568;2023-08-12T06:36:11;119.40;;;113.38;;
40058;SDS011;25763;49.972;8.568;2023-08-12T06:38:37;124.40;;;118.15;;
40058;SDS011;25763;49.972;8.568;2023-08-12T06:41:02;117.95;;;111.97;;
40058;SDS011;25763;49.972;8.568;2023-08-12T06:43:28;133.68;;;126.82;;
40058;SDS011;25763;49.972;8.568;2023-08-12T06:45:53;96.15;;;91.30;;
40058;SDS011;25763;49.972;8.568;2023-08-12T06:48:19;87.05;;;82.50;;
40058;SDS011;25763;49.972;8.568;2023-08-12T06:50:44;126.82;;;120.13;;
40058;SDS011;25763;49.972;8.568;2023-08-12T06:53:10;97.93;;;92.72;;
40058;SDS011;25763;49.972;8.568;2023-08-12T06:55:35;100.38;;;95.30;;
40058;SDS011;25763;49.972;8.568;2023-08-12T06:58:01;87.20;;;82.80;;
40058;SDS011;25763;49.972;8.568;2023-08-12T07:00:26;90.80;;;86.18;;
40058;SDS011;25763;49.972;8.568;2023-08-12T07:02:51;94.38;;;89.53;;
40058;SDS011;25763;49.972;8.568;2023-08-12T07:05:17;137.43;;;130.40;;
40058;SDS011;25763;49.972;8.568;2023-08-12T07:07:42;143.80;;;136.20;;
40058;SDS011;25763;49.972;8.568;2023-08-12T07:10:07;38.25;;;36.25;;
40058;SDS011;25763;49.972;8.568;2023-08-12T07:12:33;34.53;;;32.60;;
40058;SDS011;25763;49.972;8.568;2023-08-12T07:14:59;61.60;;;58.45;;
40058;SDS011;25763;49.972;8.568;2023-08-12T07:17:24;50.22;;;47.63;;
40058;SDS011;25763;49.972;8.568;2023-08-12T07:19:50;26.63;;;25.02;;
40058;SDS011;25763;49.972;8.568;2023-08-12T07:22:15;84.00;;;79.65;;
40058;SDS011;25763;49.972;8.568;2023-08-12T07:24:44;51.53;;;48.72;;
40058;SDS011;25763;49.972;8.568;2023-08-12T07:27:10;38.38;;;36.33;;
40058;SDS011;25763;49.972;8.568;2023-08-12T07:29:35;27.77;;;24.38;;
40058;SDS011;25763;49.972;8.568;2023-08-12T07:32:00;27.17;;;25.70;;
40058;SDS011;25763;49.972;8.568;2023-08-12T07:34:26;27.08;;;25.60;;
40058;SDS011;25763;49.972;8.568;2023-08-12T07:36:51;27.15;;;25.65;;
40058;SDS011;25763;49.972;8.568;2023-08-12T07:39:16;28.75;;;27.15;;
40058;SDS011;25763;49.972;8.568;2023-08-12T07:41:42;27.88;;;26.38;;
40058;SDS011;25763;49.972;8.568;2023-08-12T07:44:07;29.48;;;27.83;;
40058;SDS011;25763;49.972;8.568;2023-08-12T07:46:33;28.05;;;26.45;;
40058;SDS011;25763;49.972;8.568;2023-08-12T07:48:58;30.23;;;28.52;;
40058;SDS011;25763;49.972;8.568;2023-08-12T07:51:24;30.13;;;28.45;;
40058;SDS011;25763;49.972;8.568;2023-08-12T07:53:50;30.83;;;29.13;;
40058;SDS011;25763;49.972;8.568;2023-08-12T07:56:15;30.25;;;28.65;;
40058;SDS011;25763;49.972;8.568;2023-08-12T07:58:40;33.10;;;31.30;;
40058;SDS011;25763;49.972;8.568;2023-08-12T08:01:06;33.10;;;31.25;;
40058;SDS011;25763;49.972;8.568;2023-08-12T08:03:33;31.13;;;29.42;;
40058;SDS011;25763;49.972;8.568;2023-08-12T08:05:59;35.00;;;33.10;;
40058;SDS011;25763;49.972;8.568;2023-08-12T08:08:24;36.65;;;34.72;;
40058;SDS011;25763;49.972;8.568;2023-08-12T08:10:49;34.08;;;32.25;;
40058;SDS011;25763;49.972;8.568;2023-08-12T08:13:15;40.35;;;38.25;;
40058;SDS011;25763;49.972;8.568;2023-08-12T08:15:40;36.83;;;34.72;;
40058;SDS011;25763;49.972;8.568;2023-08-12T08:18:06;35.38;;;33.55;;
40058;SDS011;25763;49.972;8.568;2023-08-12T08:20:31;35.33;;;33.40;;
40058;SDS011;25763;49.972;8.568;2023-08-12T08:22:56;36.15;;;33.47;;
40058;SDS011;25763;49.972;8.568;2023-08-12T08:25:22;36.50;;;34.50;;
40058;SDS011;25763;49.972;8.568;2023-08-12T08:27:48;34.20;;;32.33;;
40058;SDS011;25763;49.972;8.568;2023-08-12T08:30:13;33.03;;;31.33;;
40058;SDS011;25763;49.972;8.568;2023-08-12T08:32:39;35.13;;;33.33;;
40058;SDS011;25763;49.972;8.568;2023-08-12T08:35:04;38.88;;;36.67;;
40058;SDS011;25763;49.972;8.568;2023-08-12T08:37:30;35.10;;;33.20;;
40058;SDS011;25763;49.972;8.568;2023-08-12T08:39:55;35.45;;;33.58;;
40058;SDS011;25763;49.972;8.568;2023-08-12T08:42:21;40.42;;;38.20;;
40058;SDS011;25763;49.972;8.568;2023-08-12T08:44:49;36.28;;;34.33;;
40058;SDS011;25763;49.972;8.568;2023-08-12T08:47:24;41.78;;;39.53;;
40058;SDS011;25763;49.972;8.568;2023-08-12T08:49:51;66.60;;;63.10;;
40058;SDS011;25763;49.972;8.568;2023-08-12T08:52:21;53.47;;;50.70;;
40058;SDS011;25763;49.972;8.568;2023-08-12T08:54:47;59.15;;;56.15;;
40058;SDS011;25763;49.972;8.568;2023-08-12T08:57:13;59.47;;;56.45;;
40058;SDS011;25763;49.972;8.568;2023-08-12T08:59:38;41.10;;;38.70;;
40058;SDS011;25763;49.972;8.568;2023-08-12T09:02:04;48.15;;;45.70;;
40058;SDS011;25763;49.972;8.568;2023-08-12T09:04:30;36.97;;;35.00;;
40058;SDS011;25763;49.972;8.568;2023-08-12T09:06:57;38.30;;;36.30;;
40058;SDS011;25763;49.972;8.568;2023-08-12T09:09:24;40.70;;;38.63;;
40058;SDS011;25763;49.972;8.568;2023-08-12T09:11:50;58.38;;;55.40;;
40058;SDS011;25763;49.972;8.568;2023-08-12T09:14:18;76.82;;;73.00;;
40058;SDS011;25763;49.972;8.568;2023-08-12T09:16:43;62.20;;;59.03;;
40058;SDS011;25763;49.972;8.568;2023-08-12T09:19:08;61.38;;;58.28;;
40058;SDS011;25763;49.972;8.568;2023-08-12T09:21:34;61.47;;;58.42;;
40058;SDS011;25763;49.972;8.568;2023-08-12T09:24:03;55.30;;;52.40;;
40058;SDS011;25763;49.972;8.568;2023-08-12T09:26:33;53.67;;;50.97;;
40058;SDS011;25763;49.972;8.568;2023-08-12T09:28:59;46.70;;;44.20;;
40058;SDS011;25763;49.972;8.568;2023-08-12T09:31:29;50.80;;;47.97;;
40058;SDS011;25763;49.972;8.568;2023-08-12T09:36:27;31.13;;;29.45;;
40058;SDS011;25763;49.972;8.568;2023-08-12T09:38:53;39.70;;;37.67;;
40058;SDS011;25763;49.972;8.568;2023-08-12T09:41:20;33.20;;;31.42;;
40058;SDS011;25763;49.972;8.568;2023-08-12T09:43:48;33.60;;;31.85;;
40058;SDS011;25763;49.972;8.568;2023-08-12T09:46:13;30.23;;;28.63;;
40058;SDS011;25763;49.972;8.568;2023-08-12T09:48:39;32.92;;;31.10;;
40058;SDS011;25763;49.972;8.568;2023-08-12T09:51:05;31.23;;;29.63;;
40058;SDS011;25763;49.972;8.568;2023-08-12T09:53:32;31.08;;;29.42;;
40058;SDS011;25763;49.972;8.568;2023-08-12T09:55:58;28.92;;;27.40;;
40058;SDS011;25763;49.972;8.568;2023-08-12T09:58:30;28.83;;;27.33;;
40058;SDS011;25763;49.972;8.568;2023-08-12T10:00:57;31.35;;;29.65;;
40058;SDS011;25763;49.972;8.568;2023-08-12T10:03:23;26.45;;;25.02;;
40058;SDS011;25763;49.972;8.568;2023-08-12T10:05:49;26.98;;;25.15;;
40058;SDS011;25763;49.972;8.568;2023-08-12T10:08:15;28.02;;;26.52;;
40058;SDS011;25763;49.972;8.568;2023-08-12T10:10:42;34.05;;;32.15;;
40058;SDS011;25763;49.972;8.568;2023-08-12T10:13:09;29.85;;;28.15;;
40058;SDS011;25763;49.972;8.568;2023-08-12T10:15:38;27.35;;;25.88;;
40058;SDS011;25763;49.972;8.568;2023-08-12T10:18:05;27.52;;;26.02;;
40058;SDS011;25763;49.972;8.568;2023-08-12T10:20:31;33.63;;;31.83;;
40058;SDS011;25763;49.972;8.568;2023-08-12T10:22:57;51.40;;;48.60;;
40058;SDS011;25763;49.972;8.568;2023-08-12T10:25:25;89.28;;;84.70;;
40058;SDS011;25763;49.972;8.568;2023-08-12T10:27:57;143.77;;;136.40;;
40058;SDS011;25763;49.972;8.568;2023-08-12T10:30:23;114.63;;;108.95;;
40058;SDS011;25763;49.972;8.568;2023-08-12T10:32:48;122.63;;;116.13;;
40058;SDS011;25763;49.972;8.568;2023-08-12T10:35:14;93.63;;;88.60;;
40058;SDS011;25763;49.972;8.568;2023-08-12T10:37:40;88.70;;;84.28;;
40058;SDS011;25763;49.972;8.568;2023-08-12T10:40:05;91.93;;;87.32;;
40058;SDS011;25763;49.972;8.568;2023-08-12T10:45:14;170.73;;;161.63;;
40058;SDS011;25763;49.972;8.568;2023-08-12T10:47:47;168.65;;;159.93;;
40058;SDS011;25763;49.972;8.568;2023-08-12T10:50:17;163.73;;;155.52;;
40058;SDS011;25763;49.972;8.568;2023-08-12T10:52:44;136.65;;;129.63;;
40058;SDS011;25763;49.972;8.568;2023-08-12T10:55:24;149.48;;;141.93;;
40058;SDS011;25763;49.972;8.568;2023-08-12T11:00:20;178.75;;;169.80;;
40058;SDS011;25763;49.972;8.568;2023-08-12T11:02:49;203.63;;;193.15;;
40058;SDS011;25763;49.972;8.568;2023-08-12T11:05:16;205.65;;;195.35;;
40058;SDS011;25763;49.972;8.568;2023-08-12T11:07:56;192.23;;;182.45;;
40058;SDS011;25763;49.972;8.568;2023-08-12T11:10:30;193.48;;;183.48;;
40058;SDS011;25763;49.972;8.568;2023-08-12T11:17:54;133.55;;;126.88;;
40058;SDS011;25763;49.972;8.568;2023-08-12T11:20:19;116.80;;;110.68;;
40058;SDS011;25763;49.972;8.568;2023-08-12T11:22:46;124.03;;;117.85;;
40058;SDS011;25763;49.972;8.568;2023-08-12T11:25:12;146.60;;;139.20;;
40058;SDS011;25763;49.972;8.568;2023-08-12T11:27:39;188.45;;;179.15;;
40058;SDS011;25763;49.972;8.568;2023-08-12T11:30:05;208.48;;;198.13;;
40058;SDS011;25763;49.972;8.568;2023-08-12T11:32:32;231.73;;;219.52;;
40058;SDS011;25763;49.972;8.568;2023-08-12T11:34:59;251.43;;;238.88;;
40058;SDS011;25763;49.972;8.568;2023-08-12T11:37:25;250.60;;;238.20;;
40058;SDS011;25763;49.972;8.568;2023-08-12T11:39:51;225.48;;;214.32;;
40058;SDS011;25763;49.972;8.568;2023-08-12T11:42:17;153.93;;;146.13;;
40058;SDS011;25763;49.972;8.568;2023-08-12T11:44:43;99.53;;;94.57;;
40058;SDS011;25763;49.972;8.568;2023-08-12T11:47:08;78.38;;;72.78;;
40058;SDS011;25763;49.972;8.568;2023-08-12T11:49:34;76.88;;;72.78;;
40058;SDS011;25763;49.972;8.568;2023-08-12T11:51:59;91.18;;;86.68;;
40058;SDS011;25763;49.972;8.568;2023-08-12T11:54:25;95.47;;;90.57;;
40058;SDS011;25763;49.972;8.568;2023-08-12T11:56:51;102.45;;;97.40;;
40058;SDS011;25763;49.972;8.568;2023-08-12T11:59:17;81.55;;;77.53;;
40058;SDS011;25763;49.972;8.568;2023-08-12T12:01:45;93.10;;;88.22;;
40058;SDS011;25763;49.972;8.568;2023-08-12T12:04:14;88.53;;;84.15;;
40058;SDS011;25763;49.972;8.568;2023-08-12T12:06:39;91.45;;;86.93;;
40058;SDS011;25763;49.972;8.568;2023-08-12T12:09:06;83.20;;;79.10;;
40058;SDS011;25763;49.972;8.568;2023-08-12T12:11:38;92.32;;;87.72;;
40058;SDS011;25763;49.972;8.568;2023-08-12T12:14:04;90.90;;;86.38;;
40058;SDS011;25763;49.972;8.568;2023-08-12T12:16:46;90.80;;;86.30;;
40058;SDS011;25763;49.972;8.568;2023-08-12T12:19:20;77.35;;;73.47;;
40058;SDS011;25763;49.972;8.568;2023-08-12T12:21:52;82.20;;;78.15;;
40058;SDS011;25763;49.972;8.568;2023-08-12T12:24:18;79.47;;;75.53;;
40058;SDS011;25763;49.972;8.568;2023-08-12T12:26:45;89.57;;;85.10;;
40058;SDS011;25763;49.972;8.568;2023-08-12T12:29:12;95.28;;;90.47;;
40058;SDS011;25763;49.972;8.568;2023-08-12T12:31:38;72.05;;;68.47;;
40058;SDS011;25763;49.972;8.568;2023-08-12T12:34:04;72.88;;;69.22;;
40058;SDS011;25763;49.972;8.568;2023-08-12T12:36:31;72.30;;;68.65;;
40058;SDS011;25763;49.972;8.568;2023-08-12T12:38:59;64.65;;;61.40;;
40058;SDS011;25763;49.972;8.568;2023-08-12T12:41:24;70.85;;;67.25;;
40058;SDS011;25763;49.972;8.568;2023-08-12T12:43:50;89.22;;;84.10;;
40058;SDS011;25763;49.972;8.568;2023-08-12T12:46:15;120.63;;;114.63;;
40058;SDS011;25763;49.972;8.568;2023-08-12T12:48:41;109.47;;;104.03;;
40058;SDS011;25763;49.972;8.568;2023-08-12T12:51:07;129.05;;;122.57;;
40058;SDS011;25763;49.972;8.568;2023-08-12T12:53:32;130.52;;;123.93;;
40058;SDS011;25763;49.972;8.568;2023-08-12T12:55:57;119.32;;;113.40;;
40058;SDS011;25763;49.972;8.568;2023-08-12T12:58:28;117.60;;;111.55;;
40058;SDS011;25763;49.972;8.568;2023-08-12T13:00:55;87.90;;;83.47;;
40058;SDS011;25763;49.972;8.568;2023-08-12T13:03:20;53.53;;;50.83;;
40058;SDS011;25763;49.972;8.568;2023-08-12T13:05:46;76.72;;;72.93;;
40058;SDS011;25763;49.972;8.568;2023-08-12T13:08:11;52.38;;;49.72;;
40058;SDS011;25763;49.972;8.568;2023-08-12T13:10:37;60.10;;;57.08;;
40058;SDS011;25763;49.972;8.568;2023-08-12T13:13:02;90.13;;;85.68;;
40058;SDS011;25763;49.972;8.568;2023-08-12T13:15:28;103.75;;;98.65;;
40058;SDS011;25763;49.972;8.568;2023-08-12T13:17:53;69.65;;;66.20;;
40058;SDS011;25763;49.972;8.568;2023-08-12T13:20:19;99.28;;;94.20;;
40058;SDS011;25763;49.972;8.568;2023-08-12T13:22:44;103.70;;;98.63;;
40058;SDS011;25763;49.972;8.568;2023-08-12T13:25:09;84.47;;;80.30;;
40058;SDS011;25763;49.972;8.568;2023-08-12T13:27:35;113.55;;;108.00;;
40058;SDS011;25763;49.972;8.568;2023-08-12T13:30:00;112.80;;;107.28;;
40058;SDS011;25763;49.972;8.568;2023-08-12T13:32:25;96.05;;;91.32;;
40058;SDS011;25763;49.972;8.568;2023-08-12T13:34:51;111.28;;;105.78;;
40058;SDS011;25763;49.972;8.568;2023-08-12T13:37:16;117.40;;;111.63;;
40058;SDS011;25763;49.972;8.568;2023-08-12T13:39:41;110.45;;;104.97;;
40058;SDS011;25763;49.972;8.568;2023-08-12T13:42:07;87.15;;;82.80;;
40058;SDS011;25763;49.972;8.568;2023-08-12T13:44:32;102.50;;;97.47;;
40058;SDS011;25763;49.972;8.568;2023-08-12T13:46:57;105.43;;;100.20;;
40058;SDS011;25763;49.972;8.568;2023-08-12T13:49:23;86.65;;;82.40;;
40058;SDS011;25763;49.972;8.568;2023-08-12T13:51:48;72.07;;;68.35;;
40058;SDS011;25763;49.972;8.568;2023-08-12T13:54:13;75.55;;;71.80;;
40058;SDS011;25763;49.972;8.568;2023-08-12T13:56:39;63.50;;;60.30;;
40058;SDS011;25763;49.972;8.568;2023-08-12T13:59:04;69.57;;;66.15;;
40058;SDS011;25763;49.972;8.568;2023-08-12T14:01:30;66.93;;;63.42;;
40058;SDS011;25763;49.972;8.568;2023-08-12T14:03:55;56.03;;;53.20;;
40058;SDS011;25763;49.972;8.568;2023-08-12T14:06:20;49.88;;;47.38;;
40058;SDS011;25763;49.972;8.568;2023-08-12T14:08:46;44.63;;;42.33;;
40058;SDS011;25763;49.972;8.568;2023-08-12T14:11:11;53.63;;;50.92;;
40058;SDS011;25763;49.972;8.568;2023-08-12T14:13:37;39.15;;;37.05;;
40058;SDS011;25763;49.972;8.568;2023-08-12T14:16:02;38.03;;;36.03;;
40058;SDS011;25763;49.972;8.568;2023-08-12T14:18:27;35.33;;;33.53;;
40058;SDS011;25763;49.972;8.568;2023-08-12T14:20:53;35.38;;;33.50;;
40058;SDS011;25763;49.972;8.568;2023-08-12T14:23:18;35.38;;;33.58;;
40058;SDS011;25763;49.972;8.568;2023-08-12T14:25:43;35.90;;;33.92;;